METAR Data
IDs: Format: Raw Decoded Include TAF

Data at: 2012 UTC 14 Dec 2018

KHDO 141951Z AUTO 32020G26KT 10SM BKN060 18/02 A3011 RMK AO2 PK WND 31027/1912 SLP190 T01830017
KHDO 141851Z AUTO 31018G23KT 10SM CLR 16/01 A3014 RMK AO2 PK WND 33032/1811 SLP199 T01610006
KHDO 141751Z AUTO 31020G25KT 10SM CLR 14/M01 A3014 RMK AO2 PK WND 33029/1740 SLP202 T01441006 10150 20050 50007
KHDO 141651Z AUTO 32020G27KT 10SM FEW043 13/M01 A3017 RMK AO2 PK WND 31027/1643 SLP209 T01331011
KHDO 141551Z AUTO 31011KT 10SM SCT042 11/M02 A3016 RMK AO2 SLP208 T01061022
KHDO 141451Z AUTO 31014KT 10SM SCT039 10/M03 A3012 RMK AO2 SLP196 T01001028 51022
KHDO 141351Z AUTO 30010KT 10SM CLR 08/M03 A3010 RMK AO2 SLP190 T00781028
KHDO 141251Z AUTO 31009KT 10SM CLR 06/M02 A3008 RMK AO2 SLP181 T00611022
KHDO 141151Z AUTO 30008KT 10SM CLR 06/M02 A3006 RMK AO2 SLP174 T00561022 10100 20056 53012
KHDO 141051Z AUTO 31011KT 10SM FEW043 07/M02 A3004 RMK AO2 SLP167 T00671022
KHDO 140951Z AUTO 31012KT 10SM OVC048 09/M02 A3004 RMK AO2 SLP165 T00891017
KHDO 140851Z AUTO 31011G25KT 10SM FEW050 09/M02 A3002 RMK AO2 SLP159 T00891022 55001
KHDO 140751Z AUTO 30018KT 10SM FEW095 10/M02 A3001 RMK AO2 SLP153 T01001022
KHDO 140651Z AUTO 29014G19KT 10SM CLR 09/00 A3001 RMK AO2 SLP155 T00890000
KHDO 140551Z AUTO 29010KT 10SM CLR 08/01 A3003 RMK AO2 PK WND 32029/0458 SLP159 T00830011 10106 20083 402170078 50000
KHDO 140451Z AUTO 31018KT 10SM FEW046 09/02 A3003 RMK AO2 PK WND 31034/0401 SLP161 T00890017
KHDO 140351Z AUTO 31024G33KT 10SM BKN038 09/02 A3003 RMK AO2 PK WND 31039/0334 SLP162 T00890017
KHDO 140251Z AUTO 31020G34KT 10SM BKN041 OVC095 10/02 A3003 RMK AO2 PK WND 31034/0248 SLP161 T01000017 53018
KHDO 140151Z AUTO 31022G32KT 10SM BKN040 BKN100 10/02 A3000 RMK AO2 PK WND 32034/0122 SLP155 T01000022
KHDO 140051Z AUTO 32024G28KT 10SM BKN039 BKN080 10/02 A2998 RMK AO2 PK WND 32031/0035 SLP146 T01000022
KHDO 132351Z AUTO 31024G31KT 10SM OVC044 11/02 A2997 RMK AO2 PK WND 30031/2349 SLP143 T01060017 10217 20106 51045
KHDO 132251Z AUTO 31024G36KT 10SM OVC049 12/02 A2994 RMK AO2 PK WND 31036/2249 SLP133 T01170022
KHDO 132151Z AUTO 31025G34KT 10SM BKN055 13/02 A2990 RMK AO2 PK WND 29045/2115 SLP117 T01330022
KHDO 132051Z AUTO 32035G43KT 10SM CLR 17/02 A2983 RMK AO2 PK WND 28046/1959 SLP093 T01720017 53007
KHDO 131951Z AUTO 28034G42KT 10SM CLR 21/M03 A2980 RMK AO2 PK WND 28043/1941 SLP081 T02061028 $
KHDO 131851Z AUTO 31026G40KT 10SM CLR 21/M02 A2979 RMK AO2 PK WND 31041/1829 SLP080 T02061017 $
KHDO 131751Z AUTO 32023G32KT 10SM CLR 21/02 A2981 RMK AO2 PK WND 32032/1745 SLP084 T02110017 10211 20083 50001 $
KHDO 131651Z AUTO 32019G26KT 10SM CLR 21/08 A2982 RMK AO2 PK WND 32028/1638 SLP088 T02060078 $
KHDO 131608Z AUTO 27011KT 10SM SCT002 14/13 A2982 RMK AO2 T01440133
KHDO 131553Z AUTO 27013KT 3SM BR BKN002 14/13 A2981 RMK AO2 T01440133
KHDO 131551Z AUTO 27013KT 2SM BR OVC002 14/13 A2981 RMK AO2 SLP086 T01440133
KHDO 131549Z AUTO 27011KT 1 1/4SM BR OVC002 14/13 A2981 RMK AO2
KHDO 131451Z AUTO 26008KT 1/4SM FG VV002 12/12 A2981 RMK AO2 SLP086 T01220117 53019
KHDO 131351Z AUTO 00000KT M1/4SM FG VV002 09/08 A2978 RMK AO2 SLP077 T00940083
KHDO 131251Z AUTO 34003KT 1/4SM FG VV002 09/08 A2976 RMK AO2 SLP072 T00890083
KHDO 131227Z AUTO 31004KT 3/4SM BR VV002 09/08 A2976 RMK AO2 T00890083
KHDO 131225Z AUTO 31005KT 1 1/2SM BR SCT002 09/08 A2976 RMK AO2 T00890078
KHDO 131223Z AUTO 31005KT 2 1/2SM BR FEW002 09/08 A2976 RMK AO2 T00890078
KHDO 131151Z AUTO 31006KT 4SM BR CLR 08/07 A2975 RMK AO2 SLP067 T00830072 10128 20078 58006
KHDO 131147Z AUTO 31005KT 2 1/2SM BR CLR 08/07 A2975 RMK AO2
KHDO 131141Z AUTO 32006KT 1 1/2SM BR CLR 08/07 A2974 RMK AO2 T00830072
KHDO 131134Z AUTO 32006KT 2SM BR CLR 08/07 A2974 RMK AO2 T00830072
KHDO 131051Z AUTO 32006KT 8SM CLR 09/08 A2975 RMK AO2 SLP066 T00890078
KHDO 131045Z AUTO 32005KT 3SM BR CLR 09/08 A2975 RMK AO2
KHDO 131042Z AUTO 32006KT 1 1/4SM BR FEW003 08/07 A2975 RMK AO2 T00830072
KHDO 130951Z AUTO 29003KT 1/4SM FG VV002 09/08 A2977 RMK AO2 SLP074 T00890078
KHDO 130936Z AUTO 00000KT 1/2SM FG VV003 09/09 A2977 RMK AO2 T00940089
KHDO 130931Z AUTO 33003KT 1 3/4SM BR CLR 10/09 A2977 RMK AO2 T01000089
KHDO 130923Z AUTO 35004KT 2 1/2SM BR CLR 10/09 A2977 RMK AO2 T01000089
KHDO 130851Z AUTO 35007KT 5SM BR CLR 10/09 A2977 RMK AO2 SLP072 T01000089 56021